Dubois, Wyoming
Current Conditions -  °F | °C
As of 9:15 PM on Thursday 20 Nov 2014 (Local Time) from KDUB Reporting Station
Broken Clouds Broken Clouds  
Wind Chill: 24°   Ceiling: 4300
Heat Index: 32°   Visibility: 10mi
Dew Point: 19°   Wind: 9mph
Humidity: 60%   Direction: 320°NW
Pressure: 29.97"   Gusts: NA
Location:  43.53°N, 109.63°W
Report Text: KDUB 210415Z AUTO 32008KT 10SM BKN043 00/M07 A2997 RMK AO2
Loading
Personal Weather Stations






























Interactive Weather Map New forecast layout! Learn more

10-Day Weather Forecast

Advertisements
Track Severe Weather on mobile